aviador You're here:

KORH Decoded Metar

WORCESTER in MA, USA
Report Time2017-08-18 10:41:00
UTC Time2017-08-18 10:50:24
Flight Rules lifr LIFR
Wind180° at 07 kt
W.Decomp.*RWY 15: 4.9 kt HW 4.9 kt RCW
RWY 11: 0.6 kt HW 7.0 kt RCW
W.Rank180° ranks 26
Current wind is below 180° avg. (8.2)
Visibility9999 m
Phenomena:N/A
Clouds:Overcast 004 Hf
Expected CloudBase > 800 ft AGL from Temp-Dew spread
Ceiling400 ft
Temp18°C (ISA +5)
Dew Point16°C (88% RH)
AAT17.5°C
QNH1015 hPa
Density Alt1,759 ft
Elevation997 ft
Report Wrong Elevation
Raw Report
KORH 181041Z 18007KT 10SM OVC004 18/16 A2997=

Extra information for KORH:More info

Metar Taf Metar & Taf Last 4 Metars F.Rules Stats Wind Profile Meteogram Temp Stats Airport Information Weather charts Add Link Nearby VenuesMetar ALERT Operation Metar Decoded Social comments

AIRNAV info for KORH